sensor_id;sensor_type;location;lat;lon;timestamp;P1;durP1;ratioP1;P2;durP2;ratioP2
58768;SDS011;44536;47.474;19.056;2023-02-17T00:00:26;60.33;;;29.70;;
58768;SDS011;44536;47.474;19.056;2023-02-17T00:03:28;50.05;;;29.70;;
58768;SDS011;44536;47.474;19.056;2023-02-17T00:06:31;65.53;;;30.02;;
58768;SDS011;44536;47.474;19.056;2023-02-17T00:09:35;51.58;;;27.27;;
58768;SDS011;44536;47.474;19.056;2023-02-17T00:12:37;53.97;;;26.60;;
58768;SDS011;44536;47.474;19.056;2023-02-17T00:15:40;60.90;;;30.50;;
58768;SDS011;44536;47.474;19.056;2023-02-17T00:18:43;57.70;;;28.40;;
58768;SDS011;44536;47.474;19.056;2023-02-17T00:21:45;58.37;;;28.57;;
58768;SDS011;44536;47.474;19.056;2023-02-17T00:24:48;61.67;;;31.12;;
58768;SDS011;44536;47.474;19.056;2023-02-17T00:27:51;49.75;;;26.65;;
58768;SDS011;44536;47.474;19.056;2023-02-17T00:30:53;56.50;;;31.50;;
58768;SDS011;44536;47.474;19.056;2023-02-17T00:33:57;56.70;;;27.80;;
58768;SDS011;44536;47.474;19.056;2023-02-17T00:37:00;59.95;;;31.70;;
58768;SDS011;44536;47.474;19.056;2023-02-17T00:40:04;57.35;;;28.67;;
58768;SDS011;44536;47.474;19.056;2023-02-17T00:43:07;50.17;;;27.33;;
58768;SDS011;44536;47.474;19.056;2023-02-17T00:46:11;58.22;;;30.05;;
58768;SDS011;44536;47.474;19.056;2023-02-17T00:49:18;56.87;;;28.17;;
58768;SDS011;44536;47.474;19.056;2023-02-17T00:52:22;58.33;;;29.02;;
58768;SDS011;44536;47.474;19.056;2023-02-17T00:55:25;54.55;;;30.33;;
58768;SDS011;44536;47.474;19.056;2023-02-17T00:58:28;55.22;;;28.83;;
58768;SDS011;44536;47.474;19.056;2023-02-17T01:01:31;58.65;;;30.10;;
58768;SDS011;44536;47.474;19.056;2023-02-17T01:07:36;50.22;;;27.30;;
58768;SDS011;44536;47.474;19.056;2023-02-17T01:10:40;54.67;;;28.65;;
58768;SDS011;44536;47.474;19.056;2023-02-17T01:13:44;55.10;;;29.83;;
58768;SDS011;44536;47.474;19.056;2023-02-17T01:16:47;61.43;;;29.53;;
58768;SDS011;44536;47.474;19.056;2023-02-17T01:19:50;57.15;;;28.80;;
58768;SDS011;44536;47.474;19.056;2023-02-17T01:22:52;53.78;;;29.75;;
58768;SDS011;44536;47.474;19.056;2023-02-17T01:25:55;56.08;;;28.30;;
58768;SDS011;44536;47.474;19.056;2023-02-17T01:28:58;52.20;;;26.83;;
58768;SDS011;44536;47.474;19.056;2023-02-17T01:32:00;54.83;;;31.55;;
58768;SDS011;44536;47.474;19.056;2023-02-17T01:35:04;52.17;;;28.92;;
58768;SDS011;44536;47.474;19.056;2023-02-17T01:38:08;50.97;;;28.55;;
58768;SDS011;44536;47.474;19.056;2023-02-17T01:44:17;40.45;;;24.75;;
58768;SDS011;44536;47.474;19.056;2023-02-17T01:47:23;50.47;;;28.75;;
58768;SDS011;44536;47.474;19.056;2023-02-17T01:50:28;48.53;;;26.37;;
58768;SDS011;44536;47.474;19.056;2023-02-17T01:53:35;54.25;;;27.67;;
58768;SDS011;44536;47.474;19.056;2023-02-17T01:56:41;58.38;;;27.40;;
58768;SDS011;44536;47.474;19.056;2023-02-17T01:59:47;59.00;;;28.85;;
58768;SDS011;44536;47.474;19.056;2023-02-17T02:02:50;52.42;;;26.92;;
58768;SDS011;44536;47.474;19.056;2023-02-17T02:05:53;49.70;;;27.05;;
58768;SDS011;44536;47.474;19.056;2023-02-17T02:08:58;47.55;;;27.37;;
58768;SDS011;44536;47.474;19.056;2023-02-17T02:12:18;50.85;;;26.33;;
58768;SDS011;44536;47.474;19.056;2023-02-17T02:15:27;49.72;;;27.40;;
58768;SDS011;44536;47.474;19.056;2023-02-17T02:31:27;49.83;;;26.75;;
58768;SDS011;44536;47.474;19.056;2023-02-17T02:34:36;47.10;;;26.37;;
58768;SDS011;44536;47.474;19.056;2023-02-17T02:37:58;50.33;;;25.80;;
58768;SDS011;44536;47.474;19.056;2023-02-17T02:41:07;47.97;;;25.65;;
58768;SDS011;44536;47.474;19.056;2023-02-17T02:44:15;55.70;;;26.12;;
58768;SDS011;44536;47.474;19.056;2023-02-17T03:00:49;48.05;;;24.50;;
58768;SDS011;44536;47.474;19.056;2023-02-17T03:07:26;56.33;;;25.37;;
58768;SDS011;44536;47.474;19.056;2023-02-17T03:10:33;46.45;;;23.83;;
58768;SDS011;44536;47.474;19.056;2023-02-17T03:13:36;42.13;;;21.00;;
58768;SDS011;44536;47.474;19.056;2023-02-17T03:16:41;39.58;;;22.77;;
58768;SDS011;44536;47.474;19.056;2023-02-17T03:19:45;50.47;;;24.75;;
58768;SDS011;44536;47.474;19.056;2023-02-17T03:22:49;46.50;;;23.10;;
58768;SDS011;44536;47.474;19.056;2023-02-17T03:25:52;47.05;;;24.30;;
58768;SDS011;44536;47.474;19.056;2023-02-17T03:28:55;47.40;;;24.52;;
58768;SDS011;44536;47.474;19.056;2023-02-17T03:31:58;42.07;;;21.90;;
58768;SDS011;44536;47.474;19.056;2023-02-17T03:35:01;36.55;;;19.45;;
58768;SDS011;44536;47.474;19.056;2023-02-17T03:38:04;45.45;;;22.73;;
58768;SDS011;44536;47.474;19.056;2023-02-17T03:41:07;37.72;;;19.20;;
58768;SDS011;44536;47.474;19.056;2023-02-17T03:44:10;36.83;;;18.98;;
58768;SDS011;44536;47.474;19.056;2023-02-17T03:47:13;39.72;;;20.45;;
58768;SDS011;44536;47.474;19.056;2023-02-17T03:50:16;36.05;;;19.67;;
58768;SDS011;44536;47.474;19.056;2023-02-17T03:53:19;40.17;;;20.65;;
58768;SDS011;44536;47.474;19.056;2023-02-17T03:56:22;38.70;;;21.33;;
58768;SDS011;44536;47.474;19.056;2023-02-17T03:59:25;41.75;;;18.40;;
58768;SDS011;44536;47.474;19.056;2023-02-17T04:02:28;40.78;;;21.33;;
58768;SDS011;44536;47.474;19.056;2023-02-17T04:05:31;35.13;;;19.00;;
58768;SDS011;44536;47.474;19.056;2023-02-17T04:08:34;41.45;;;21.58;;
58768;SDS011;44536;47.474;19.056;2023-02-17T04:11:37;39.58;;;20.65;;
58768;SDS011;44536;47.474;19.056;2023-02-17T04:14:40;33.45;;;20.10;;
58768;SDS011;44536;47.474;19.056;2023-02-17T04:20:47;31.30;;;17.67;;
58768;SDS011;44536;47.474;19.056;2023-02-17T04:23:51;43.15;;;20.40;;
58768;SDS011;44536;47.474;19.056;2023-02-17T04:26:55;41.42;;;20.08;;
58768;SDS011;44536;47.474;19.056;2023-02-17T04:29:58;37.13;;;21.00;;
58768;SDS011;44536;47.474;19.056;2023-02-17T04:33:00;43.85;;;21.85;;
58768;SDS011;44536;47.474;19.056;2023-02-17T04:39:06;40.15;;;21.40;;
58768;SDS011;44536;47.474;19.056;2023-02-17T04:42:09;46.25;;;23.10;;
58768;SDS011;44536;47.474;19.056;2023-02-17T04:45:11;42.33;;;22.90;;
58768;SDS011;44536;47.474;19.056;2023-02-17T04:48:15;49.15;;;24.40;;
58768;SDS011;44536;47.474;19.056;2023-02-17T04:51:17;43.80;;;23.27;;
58768;SDS011;44536;47.474;19.056;2023-02-17T04:54:20;56.65;;;23.55;;
58768;SDS011;44536;47.474;19.056;2023-02-17T05:00:26;37.47;;;19.30;;
58768;SDS011;44536;47.474;19.056;2023-02-17T05:03:28;40.08;;;22.25;;
58768;SDS011;44536;47.474;19.056;2023-02-17T05:06:31;49.45;;;22.50;;
58768;SDS011;44536;47.474;19.056;2023-02-17T05:09:33;34.97;;;20.15;;
58768;SDS011;44536;47.474;19.056;2023-02-17T05:12:36;43.17;;;24.58;;
58768;SDS011;44536;47.474;19.056;2023-02-17T05:15:38;39.75;;;20.10;;
58768;SDS011;44536;47.474;19.056;2023-02-17T05:18:41;40.92;;;22.98;;
58768;SDS011;44536;47.474;19.056;2023-02-17T05:21:43;48.75;;;23.65;;
58768;SDS011;44536;47.474;19.056;2023-02-17T05:24:46;40.00;;;22.70;;
58768;SDS011;44536;47.474;19.056;2023-02-17T05:27:48;38.00;;;19.92;;
58768;SDS011;44536;47.474;19.056;2023-02-17T05:30:51;39.08;;;20.45;;
58768;SDS011;44536;47.474;19.056;2023-02-17T05:33:53;43.45;;;21.02;;
58768;SDS011;44536;47.474;19.056;2023-02-17T05:36:56;52.92;;;25.15;;
58768;SDS011;44536;47.474;19.056;2023-02-17T05:39:59;40.80;;;19.87;;
58768;SDS011;44536;47.474;19.056;2023-02-17T05:43:01;38.22;;;23.12;;
58768;SDS011;44536;47.474;19.056;2023-02-17T05:46:09;38.45;;;20.37;;
58768;SDS011;44536;47.474;19.056;2023-02-17T05:49:14;41.92;;;20.58;;
58768;SDS011;44536;47.474;19.056;2023-02-17T05:52:32;35.80;;;21.52;;
58768;SDS011;44536;47.474;19.056;2023-02-17T05:55:35;35.00;;;19.00;;
58768;SDS011;44536;47.474;19.056;2023-02-17T05:58:38;39.07;;;19.40;;
58768;SDS011;44536;47.474;19.056;2023-02-17T06:01:43;35.55;;;19.42;;
58768;SDS011;44536;47.474;19.056;2023-02-17T06:04:46;40.53;;;21.90;;
58768;SDS011;44536;47.474;19.056;2023-02-17T06:07:49;35.58;;;18.27;;
58768;SDS011;44536;47.474;19.056;2023-02-17T06:13:55;33.08;;;18.80;;
58768;SDS011;44536;47.474;19.056;2023-02-17T06:17:01;37.10;;;17.90;;
58768;SDS011;44536;47.474;19.056;2023-02-17T06:20:05;37.03;;;19.98;;
58768;SDS011;44536;47.474;19.056;2023-02-17T06:26:15;38.13;;;17.98;;
58768;SDS011;44536;47.474;19.056;2023-02-17T06:29:23;33.55;;;16.23;;
58768;SDS011;44536;47.474;19.056;2023-02-17T06:32:30;33.63;;;19.85;;
58768;SDS011;44536;47.474;19.056;2023-02-17T06:35:36;39.47;;;21.50;;
58768;SDS011;44536;47.474;19.056;2023-02-17T06:38:39;39.33;;;21.53;;
58768;SDS011;44536;47.474;19.056;2023-02-17T06:41:42;39.53;;;20.93;;
58768;SDS011;44536;47.474;19.056;2023-02-17T06:44:45;40.95;;;19.48;;
58768;SDS011;44536;47.474;19.056;2023-02-17T06:47:47;35.97;;;18.10;;
58768;SDS011;44536;47.474;19.056;2023-02-17T06:50:50;41.45;;;22.42;;
58768;SDS011;44536;47.474;19.056;2023-02-17T07:00:04;34.25;;;19.15;;
58768;SDS011;44536;47.474;19.056;2023-02-17T07:03:07;29.05;;;16.17;;
58768;SDS011;44536;47.474;19.056;2023-02-17T07:06:10;35.70;;;16.03;;
58768;SDS011;44536;47.474;19.056;2023-02-17T07:09:13;30.23;;;18.98;;
58768;SDS011;44536;47.474;19.056;2023-02-17T07:12:16;28.70;;;15.30;;
58768;SDS011;44536;47.474;19.056;2023-02-17T07:15:18;34.72;;;20.23;;
58768;SDS011;44536;47.474;19.056;2023-02-17T07:18:21;32.78;;;17.52;;
58768;SDS011;44536;47.474;19.056;2023-02-17T07:21:23;34.83;;;17.83;;
58768;SDS011;44536;47.474;19.056;2023-02-17T07:24:29;29.67;;;15.43;;
58768;SDS011;44536;47.474;19.056;2023-02-17T07:27:35;31.23;;;16.30;;
58768;SDS011;44536;47.474;19.056;2023-02-17T07:30:39;41.05;;;18.52;;
58768;SDS011;44536;47.474;19.056;2023-02-17T07:33:42;35.90;;;19.42;;
58768;SDS011;44536;47.474;19.056;2023-02-17T07:36:44;33.40;;;19.67;;
58768;SDS011;44536;47.474;19.056;2023-02-17T07:39:47;32.67;;;18.07;;
58768;SDS011;44536;47.474;19.056;2023-02-17T07:43:19;32.65;;;19.55;;
58768;SDS011;44536;47.474;19.056;2023-02-17T07:46:22;39.38;;;19.10;;
58768;SDS011;44536;47.474;19.056;2023-02-17T07:49:27;35.47;;;17.75;;
58768;SDS011;44536;47.474;19.056;2023-02-17T07:52:30;36.00;;;18.77;;
58768;SDS011;44536;47.474;19.056;2023-02-17T07:55:33;32.90;;;17.70;;
58768;SDS011;44536;47.474;19.056;2023-02-17T07:58:38;33.13;;;19.48;;
58768;SDS011;44536;47.474;19.056;2023-02-17T08:01:42;32.33;;;18.58;;
58768;SDS011;44536;47.474;19.056;2023-02-17T08:04:44;31.37;;;17.77;;
58768;SDS011;44536;47.474;19.056;2023-02-17T08:07:47;33.03;;;17.40;;
58768;SDS011;44536;47.474;19.056;2023-02-17T08:10:49;32.27;;;18.73;;
58768;SDS011;44536;47.474;19.056;2023-02-17T08:14:11;33.35;;;18.08;;
58768;SDS011;44536;47.474;19.056;2023-02-17T08:20:16;31.80;;;17.00;;
58768;SDS011;44536;47.474;19.056;2023-02-17T08:23:20;30.77;;;16.30;;
58768;SDS011;44536;47.474;19.056;2023-02-17T08:26:23;35.85;;;19.10;;
58768;SDS011;44536;47.474;19.056;2023-02-17T08:29:26;26.30;;;17.05;;
58768;SDS011;44536;47.474;19.056;2023-02-17T08:32:30;25.98;;;14.48;;
58768;SDS011;44536;47.474;19.056;2023-02-17T08:35:33;27.63;;;16.40;;
58768;SDS011;44536;47.474;19.056;2023-02-17T08:38:35;25.02;;;15.27;;
58768;SDS011;44536;47.474;19.056;2023-02-17T08:41:40;29.50;;;16.62;;
58768;SDS011;44536;47.474;19.056;2023-02-17T08:44:43;25.57;;;13.60;;
58768;SDS011;44536;47.474;19.056;2023-02-17T08:47:46;27.58;;;15.70;;
58768;SDS011;44536;47.474;19.056;2023-02-17T08:50:54;24.77;;;14.93;;
58768;SDS011;44536;47.474;19.056;2023-02-17T08:57:13;26.50;;;12.13;;
58768;SDS011;44536;47.474;19.056;2023-02-17T09:00:16;23.23;;;12.85;;
58768;SDS011;44536;47.474;19.056;2023-02-17T09:03:19;23.77;;;12.63;;
58768;SDS011;44536;47.474;19.056;2023-02-17T09:06:22;23.73;;;14.23;;
58768;SDS011;44536;47.474;19.056;2023-02-17T09:09:26;24.58;;;14.50;;
58768;SDS011;44536;47.474;19.056;2023-02-17T09:12:29;25.80;;;13.13;;
58768;SDS011;44536;47.474;19.056;2023-02-17T09:15:34;20.52;;;12.15;;
58768;SDS011;44536;47.474;19.056;2023-02-17T09:18:36;23.48;;;13.27;;
58768;SDS011;44536;47.474;19.056;2023-02-17T09:21:38;26.73;;;13.82;;
58768;SDS011;44536;47.474;19.056;2023-02-17T09:24:42;28.73;;;12.82;;
58768;SDS011;44536;47.474;19.056;2023-02-17T09:27:45;22.15;;;13.15;;
58768;SDS011;44536;47.474;19.056;2023-02-17T09:30:47;21.65;;;12.52;;
58768;SDS011;44536;47.474;19.056;2023-02-17T09:33:50;26.73;;;12.73;;
58768;SDS011;44536;47.474;19.056;2023-02-17T09:36:53;20.95;;;12.00;;
58768;SDS011;44536;47.474;19.056;2023-02-17T09:39:55;16.75;;;11.12;;
58768;SDS011;44536;47.474;19.056;2023-02-17T09:42:58;22.87;;;12.05;;
58768;SDS011;44536;47.474;19.056;2023-02-17T09:46:11;19.85;;;11.55;;
58768;SDS011;44536;47.474;19.056;2023-02-17T09:49:21;26.87;;;12.00;;
58768;SDS011;44536;47.474;19.056;2023-02-17T09:52:29;23.92;;;12.55;;
58768;SDS011;44536;47.474;19.056;2023-02-17T09:55:41;23.62;;;12.30;;
58768;SDS011;44536;47.474;19.056;2023-02-17T09:58:51;22.33;;;11.63;;
58768;SDS011;44536;47.474;19.056;2023-02-17T10:01:57;22.00;;;12.45;;
58768;SDS011;44536;47.474;19.056;2023-02-17T10:05:02;30.90;;;19.62;;
58768;SDS011;44536;47.474;19.056;2023-02-17T10:08:16;27.83;;;17.37;;
58768;SDS011;44536;47.474;19.056;2023-02-17T10:11:29;29.30;;;17.75;;
58768;SDS011;44536;47.474;19.056;2023-02-17T10:21:24;27.30;;;18.55;;
58768;SDS011;44536;47.474;19.056;2023-02-17T10:24:31;29.75;;;17.75;;
58768;SDS011;44536;47.474;19.056;2023-02-17T10:30:50;37.22;;;18.92;;
58768;SDS011;44536;47.474;19.056;2023-02-17T10:34:01;30.27;;;19.92;;
58768;SDS011;44536;47.474;19.056;2023-02-17T10:40:33;33.95;;;20.35;;
58768;SDS011;44536;47.474;19.056;2023-02-17T10:43:35;29.17;;;19.17;;
58768;SDS011;44536;47.474;19.056;2023-02-17T10:46:39;34.35;;;21.77;;
58768;SDS011;44536;47.474;19.056;2023-02-17T10:49:44;41.20;;;21.98;;
58768;SDS011;44536;47.474;19.056;2023-02-17T10:52:50;37.08;;;22.45;;
58768;SDS011;44536;47.474;19.056;2023-02-17T10:56:03;34.55;;;21.62;;
58768;SDS011;44536;47.474;19.056;2023-02-17T10:59:21;37.20;;;22.45;;
58768;SDS011;44536;47.474;19.056;2023-02-17T11:02:39;35.17;;;23.02;;
58768;SDS011;44536;47.474;19.056;2023-02-17T11:05:50;38.55;;;23.73;;
58768;SDS011;44536;47.474;19.056;2023-02-17T11:08:57;39.13;;;21.98;;
58768;SDS011;44536;47.474;19.056;2023-02-17T11:12:00;32.47;;;21.73;;
58768;SDS011;44536;47.474;19.056;2023-02-17T11:15:13;34.30;;;19.48;;
58768;SDS011;44536;47.474;19.056;2023-02-17T11:18:19;44.15;;;24.42;;
58768;SDS011;44536;47.474;19.056;2023-02-17T11:21:27;34.28;;;23.15;;
58768;SDS011;44536;47.474;19.056;2023-02-17T11:24:32;38.67;;;21.98;;
58768;SDS011;44536;47.474;19.056;2023-02-17T11:27:37;30.08;;;19.65;;
58768;SDS011;44536;47.474;19.056;2023-02-17T11:30:40;38.55;;;22.42;;
58768;SDS011;44536;47.474;19.056;2023-02-17T11:33:51;35.42;;;22.40;;
58768;SDS011;44536;47.474;19.056;2023-02-17T11:40:33;41.80;;;26.40;;
58768;SDS011;44536;47.474;19.056;2023-02-17T11:43:36;40.60;;;25.08;;
58768;SDS011;44536;47.474;19.056;2023-02-17T11:46:54;42.33;;;26.92;;
58768;SDS011;44536;47.474;19.056;2023-02-17T11:50:21;41.80;;;25.02;;
58768;SDS011;44536;47.474;19.056;2023-02-17T11:53:47;44.15;;;22.08;;
58768;SDS011;44536;47.474;19.056;2023-02-17T12:00:28;36.50;;;23.90;;
58768;SDS011;44536;47.474;19.056;2023-02-17T12:04:19;40.75;;;23.08;;
58768;SDS011;44536;47.474;19.056;2023-02-17T12:10:59;41.17;;;26.67;;
58768;SDS011;44536;47.474;19.056;2023-02-17T12:27:35;47.20;;;28.85;;
58768;SDS011;44536;47.474;19.056;2023-02-17T12:36:58;48.92;;;28.48;;
58768;SDS011;44536;47.474;19.056;2023-02-17T12:40:03;50.15;;;30.92;;
58768;SDS011;44536;47.474;19.056;2023-02-17T12:43:23;47.13;;;27.75;;
58768;SDS011;44536;47.474;19.056;2023-02-17T12:46:41;45.05;;;28.58;;
58768;SDS011;44536;47.474;19.056;2023-02-17T12:49:54;49.22;;;27.25;;
58768;SDS011;44536;47.474;19.056;2023-02-17T12:53:00;54.03;;;30.23;;
58768;SDS011;44536;47.474;19.056;2023-02-17T12:56:32;49.42;;;29.37;;
58768;SDS011;44536;47.474;19.056;2023-02-17T12:59:34;45.70;;;29.52;;
58768;SDS011;44536;47.474;19.056;2023-02-17T13:02:37;52.17;;;31.20;;
58768;SDS011;44536;47.474;19.056;2023-02-17T13:05:41;43.87;;;27.67;;
58768;SDS011;44536;47.474;19.056;2023-02-17T13:08:50;45.38;;;28.92;;
58768;SDS011;44536;47.474;19.056;2023-02-17T13:15:25;46.05;;;29.98;;
58768;SDS011;44536;47.474;19.056;2023-02-17T13:18:35;50.05;;;31.70;;
58768;SDS011;44536;47.474;19.056;2023-02-17T13:21:47;47.47;;;28.60;;
58768;SDS011;44536;47.474;19.056;2023-02-17T13:24:54;45.22;;;27.77;;
58768;SDS011;44536;47.474;19.056;2023-02-17T13:28:01;48.85;;;29.70;;
58768;SDS011;44536;47.474;19.056;2023-02-17T13:31:09;47.67;;;29.80;;
58768;SDS011;44536;47.474;19.056;2023-02-17T13:34:23;53.03;;;31.48;;
58768;SDS011;44536;47.474;19.056;2023-02-17T13:40:36;48.70;;;29.85;;
58768;SDS011;44536;47.474;19.056;2023-02-17T13:43:41;52.28;;;29.63;;
58768;SDS011;44536;47.474;19.056;2023-02-17T13:46:44;48.60;;;29.17;;
58768;SDS011;44536;47.474;19.056;2023-02-17T13:49:52;43.92;;;29.40;;
58768;SDS011;44536;47.474;19.056;2023-02-17T13:53:01;44.42;;;28.25;;
58768;SDS011;44536;47.474;19.056;2023-02-17T13:59:28;45.78;;;30.55;;
58768;SDS011;44536;47.474;19.056;2023-02-17T14:02:31;49.10;;;27.65;;
58768;SDS011;44536;47.474;19.056;2023-02-17T14:05:39;42.55;;;27.50;;
58768;SDS011;44536;47.474;19.056;2023-02-17T14:08:45;51.97;;;28.45;;
58768;SDS011;44536;47.474;19.056;2023-02-17T14:11:48;44.88;;;28.00;;
58768;SDS011;44536;47.474;19.056;2023-02-17T14:14:51;46.85;;;28.87;;
58768;SDS011;44536;47.474;19.056;2023-02-17T14:17:54;45.88;;;30.25;;
58768;SDS011;44536;47.474;19.056;2023-02-17T14:21:00;45.58;;;29.08;;
58768;SDS011;44536;47.474;19.056;2023-02-17T14:24:24;46.92;;;28.15;;
58768;SDS011;44536;47.474;19.056;2023-02-17T14:27:27;50.88;;;29.50;;
58768;SDS011;44536;47.474;19.056;2023-02-17T14:30:31;48.65;;;30.30;;
58768;SDS011;44536;47.474;19.056;2023-02-17T14:33:39;56.75;;;28.20;;
58768;SDS011;44536;47.474;19.056;2023-02-17T14:36:41;45.22;;;28.95;;
58768;SDS011;44536;47.474;19.056;2023-02-17T14:39:44;49.30;;;29.37;;
58768;SDS011;44536;47.474;19.056;2023-02-17T14:42:46;49.63;;;29.65;;
58768;SDS011;44536;47.474;19.056;2023-02-17T14:45:49;45.47;;;28.42;;
58768;SDS011;44536;47.474;19.056;2023-02-17T14:48:52;49.83;;;29.58;;
58768;SDS011;44536;47.474;19.056;2023-02-17T14:51:55;52.47;;;29.53;;
58768;SDS011;44536;47.474;19.056;2023-02-17T14:54:57;46.45;;;26.87;;
58768;SDS011;44536;47.474;19.056;2023-02-17T14:58:00;46.17;;;26.45;;
58768;SDS011;44536;47.474;19.056;2023-02-17T15:01:03;47.45;;;25.65;;
58768;SDS011;44536;47.474;19.056;2023-02-17T15:04:06;36.90;;;23.80;;
58768;SDS011;44536;47.474;19.056;2023-02-17T15:07:13;47.80;;;27.42;;
58768;SDS011;44536;47.474;19.056;2023-02-17T15:10:18;45.67;;;25.60;;
58768;SDS011;44536;47.474;19.056;2023-02-17T15:13:26;42.88;;;24.42;;
58768;SDS011;44536;47.474;19.056;2023-02-17T15:16:28;42.62;;;26.23;;
58768;SDS011;44536;47.474;19.056;2023-02-17T15:19:31;44.65;;;24.05;;
58768;SDS011;44536;47.474;19.056;2023-02-17T15:22:33;40.97;;;25.58;;
58768;SDS011;44536;47.474;19.056;2023-02-17T15:25:36;42.28;;;25.65;;
58768;SDS011;44536;47.474;19.056;2023-02-17T15:28:38;43.03;;;22.48;;
58768;SDS011;44536;47.474;19.056;2023-02-17T15:31:40;43.60;;;25.88;;
58768;SDS011;44536;47.474;19.056;2023-02-17T15:34:43;41.30;;;24.95;;
58768;SDS011;44536;47.474;19.056;2023-02-17T15:37:46;44.03;;;23.17;;
58768;SDS011;44536;47.474;19.056;2023-02-17T15:40:49;41.88;;;23.45;;
58768;SDS011;44536;47.474;19.056;2023-02-17T15:43:52;40.13;;;25.30;;
58768;SDS011;44536;47.474;19.056;2023-02-17T15:46:56;39.90;;;23.45;;
58768;SDS011;44536;47.474;19.056;2023-02-17T15:49:59;38.92;;;24.80;;
58768;SDS011;44536;47.474;19.056;2023-02-17T15:53:01;48.35;;;26.20;;
58768;SDS011;44536;47.474;19.056;2023-02-17T15:56:08;46.40;;;24.60;;
58768;SDS011;44536;47.474;19.056;2023-02-17T15:59:25;41.25;;;24.08;;
58768;SDS011;44536;47.474;19.056;2023-02-17T16:02:28;40.63;;;23.75;;
58768;SDS011;44536;47.474;19.056;2023-02-17T16:05:31;40.05;;;23.90;;
58768;SDS011;44536;47.474;19.056;2023-02-17T16:08:34;39.78;;;24.23;;
58768;SDS011;44536;47.474;19.056;2023-02-17T16:11:40;43.40;;;24.25;;
58768;SDS011;44536;47.474;19.056;2023-02-17T16:14:52;45.58;;;25.98;;
58768;SDS011;44536;47.474;19.056;2023-02-17T16:17:55;40.20;;;24.10;;
58768;SDS011;44536;47.474;19.056;2023-02-17T16:20:59;34.78;;;22.67;;
58768;SDS011;44536;47.474;19.056;2023-02-17T16:24:02;40.08;;;26.37;;
58768;SDS011;44536;47.474;19.056;2023-02-17T16:27:05;36.13;;;24.75;;
58768;SDS011;44536;47.474;19.056;2023-02-17T16:30:18;37.08;;;25.40;;
58768;SDS011;44536;47.474;19.056;2023-02-17T16:33:22;52.33;;;27.52;;
58768;SDS011;44536;47.474;19.056;2023-02-17T16:36:25;39.63;;;26.55;;
58768;SDS011;44536;47.474;19.056;2023-02-17T16:39:33;37.17;;;25.20;;
58768;SDS011;44536;47.474;19.056;2023-02-17T16:42:36;39.83;;;23.73;;
58768;SDS011;44536;47.474;19.056;2023-02-17T16:45:38;43.60;;;26.85;;
58768;SDS011;44536;47.474;19.056;2023-02-17T16:48:50;39.90;;;26.83;;
58768;SDS011;44536;47.474;19.056;2023-02-17T16:51:52;45.30;;;26.65;;
58768;SDS011;44536;47.474;19.056;2023-02-17T16:54:55;56.10;;;29.83;;
58768;SDS011;44536;47.474;19.056;2023-02-17T16:57:57;44.60;;;26.33;;
58768;SDS011;44536;47.474;19.056;2023-02-17T17:01:00;46.85;;;29.37;;
58768;SDS011;44536;47.474;19.056;2023-02-17T17:04:04;45.28;;;26.75;;
58768;SDS011;44536;47.474;19.056;2023-02-17T17:10:13;47.38;;;26.58;;
58768;SDS011;44536;47.474;19.056;2023-02-17T17:13:20;52.40;;;28.30;;
58768;SDS011;44536;47.474;19.056;2023-02-17T17:16:29;47.03;;;30.05;;
58768;SDS011;44536;47.474;19.056;2023-02-17T17:19:35;49.33;;;30.30;;
58768;SDS011;44536;47.474;19.056;2023-02-17T17:22:38;50.28;;;30.05;;
58768;SDS011;44536;47.474;19.056;2023-02-17T17:25:41;48.95;;;30.27;;
58768;SDS011;44536;47.474;19.056;2023-02-17T17:28:46;49.67;;;30.48;;
58768;SDS011;44536;47.474;19.056;2023-02-17T17:34:52;49.28;;;29.40;;
58768;SDS011;44536;47.474;19.056;2023-02-17T17:37:56;48.33;;;30.92;;
58768;SDS011;44536;47.474;19.056;2023-02-17T17:40:59;52.13;;;30.98;;
58768;SDS011;44536;47.474;19.056;2023-02-17T17:44:02;45.97;;;29.35;;
58768;SDS011;44536;47.474;19.056;2023-02-17T17:47:04;68.37;;;32.33;;
58768;SDS011;44536;47.474;19.056;2023-02-17T17:50:09;53.47;;;31.92;;
58768;SDS011;44536;47.474;19.056;2023-02-17T17:53:23;43.80;;;29.05;;
58768;SDS011;44536;47.474;19.056;2023-02-17T17:56:29;48.22;;;30.90;;
58768;SDS011;44536;47.474;19.056;2023-02-17T17:59:34;54.17;;;31.37;;
58768;SDS011;44536;47.474;19.056;2023-02-17T18:02:37;51.25;;;28.70;;
58768;SDS011;44536;47.474;19.056;2023-02-17T18:05:39;44.78;;;29.30;;
58768;SDS011;44536;47.474;19.056;2023-02-17T18:08:42;51.17;;;30.55;;
58768;SDS011;44536;47.474;19.056;2023-02-17T18:11:46;52.97;;;31.75;;
58768;SDS011;44536;47.474;19.056;2023-02-17T18:14:51;54.67;;;31.20;;
58768;SDS011;44536;47.474;19.056;2023-02-17T18:17:55;55.20;;;30.98;;
58768;SDS011;44536;47.474;19.056;2023-02-17T18:20:58;63.65;;;33.50;;
58768;SDS011;44536;47.474;19.056;2023-02-17T18:24:01;53.20;;;31.17;;
58768;SDS011;44536;47.474;19.056;2023-02-17T18:27:04;57.88;;;32.75;;
58768;SDS011;44536;47.474;19.056;2023-02-17T18:30:07;51.92;;;32.95;;
58768;SDS011;44536;47.474;19.056;2023-02-17T18:33:11;63.65;;;32.90;;
58768;SDS011;44536;47.474;19.056;2023-02-17T18:36:16;60.53;;;37.70;;
58768;SDS011;44536;47.474;19.056;2023-02-17T18:39:20;59.95;;;35.75;;
58768;SDS011;44536;47.474;19.056;2023-02-17T18:42:23;56.25;;;34.20;;
58768;SDS011;44536;47.474;19.056;2023-02-17T18:45:25;52.53;;;33.92;;
58768;SDS011;44536;47.474;19.056;2023-02-17T18:48:27;56.13;;;33.78;;
58768;SDS011;44536;47.474;19.056;2023-02-17T18:51:31;54.65;;;33.08;;
58768;SDS011;44536;47.474;19.056;2023-02-17T18:54:33;59.30;;;33.40;;
58768;SDS011;44536;47.474;19.056;2023-02-17T18:57:36;53.25;;;28.62;;
58768;SDS011;44536;47.474;19.056;2023-02-17T19:00:38;50.42;;;31.95;;
58768;SDS011;44536;47.474;19.056;2023-02-17T19:03:40;50.83;;;30.45;;
58768;SDS011;44536;47.474;19.056;2023-02-17T19:06:43;55.38;;;32.22;;
58768;SDS011;44536;47.474;19.056;2023-02-17T19:09:45;49.90;;;32.70;;
58768;SDS011;44536;47.474;19.056;2023-02-17T19:12:48;59.83;;;33.72;;
58768;SDS011;44536;47.474;19.056;2023-02-17T19:15:50;68.62;;;35.55;;
58768;SDS011;44536;47.474;19.056;2023-02-17T19:18:54;60.55;;;35.60;;
58768;SDS011;44536;47.474;19.056;2023-02-17T19:21:57;58.38;;;35.72;;
58768;SDS011;44536;47.474;19.056;2023-02-17T19:24:59;55.38;;;33.90;;
58768;SDS011;44536;47.474;19.056;2023-02-17T19:28:01;55.40;;;33.92;;
58768;SDS011;44536;47.474;19.056;2023-02-17T19:31:08;57.13;;;34.25;;
58768;SDS011;44536;47.474;19.056;2023-02-17T19:34:12;56.00;;;34.30;;
58768;SDS011;44536;47.474;19.056;2023-02-17T19:37:16;46.22;;;33.63;;
58768;SDS011;44536;47.474;19.056;2023-02-17T19:40:18;53.75;;;34.50;;
58768;SDS011;44536;47.474;19.056;2023-02-17T19:43:21;58.17;;;34.88;;
58768;SDS011;44536;47.474;19.056;2023-02-17T19:46:23;57.08;;;32.55;;
58768;SDS011;44536;47.474;19.056;2023-02-17T19:49:26;57.60;;;35.63;;